Time;durP1;ratioP1;P1;durP2;ratioP2;P2;SDS_P1;SDS_P2;PMS_P1;PMS_P2;Temp;Humidity;BMP_temperature;BMP_pressure;BME280_temperature;BME280_humidity;BME280_pressure;Samples;Min_cycle;Max_cycle;Signal;HPM_P1;HPM_P2
2022/01/17 00:02:28;;;;;;;41.53;22.73;;;22.90;80.80;;;;;;1916369;74;21159;-82
2022/01/17 00:04:58;;;;;;;38.08;23.22;;;23.00;80.80;;;;;;1898062;74;21174;-82
2022/01/17 00:07:33;;;;;;;31.05;21.50;;;23.00;81.00;;;;;;1919069;74;21445;-80
2022/01/17 00:10:19;;;;;;;37.65;21.87;;;22.90;81.10;;;;;;1915483;74;21096;-82
2022/01/17 00:12:51;;;;;;;36.45;22.22;;;22.90;81.10;;;;;;1913364;74;21258;-86
2022/01/17 00:15:28;;;;;;;34.92;21.68;;;22.90;81.40;;;;;;1906236;74;21109;-84
2022/01/17 00:20:27;;;;;;;33.02;20.97;;;23.00;80.60;;;;;;1900958;74;21576;-86
2022/01/17 00:23:01;;;;;;;31.57;21.62;;;23.00;80.00;;;;;;1902573;74;21179;-84
2022/01/17 00:25:32;;;;;;;44.35;22.65;;;23.00;80.20;;;;;;1905011;74;21139;-85
2022/01/17 00:28:04;;;;;;;39.50;23.05;;;23.10;80.00;;;;;;1904228;74;21118;-82
2022/01/17 00:30:34;;;;;;;36.50;23.50;;;23.10;80.40;;;;;;1911587;74;21225;-73
2022/01/17 00:33:05;;;;;;;37.55;24.65;;;23.10;79.90;;;;;;1906145;74;21726;-73
2022/01/17 00:35:37;;;;;;;41.33;26.73;;;23.10;79.90;;;;;;1902717;74;21734;-74
2022/01/17 00:38:12;;;;;;;42.75;25.70;;;23.20;80.00;;;;;;1879636;74;21189;-73
2022/01/17 00:40:43;;;;;;;38.28;25.12;;;23.20;79.60;;;;;;1904018;74;21887;-73
2022/01/17 00:43:14;;;;;;;37.23;23.90;;;23.20;79.50;;;;;;1900892;74;21194;-73
2022/01/17 00:45:45;;;;;;;32.20;22.13;;;23.20;79.70;;;;;;1901460;74;21132;-73
2022/01/17 00:48:16;;;;;;;33.18;20.48;;;23.20;79.80;;;;;;1915071;74;21182;-73
2022/01/17 00:50:47;;;;;;;30.68;20.92;;;23.20;79.90;;;;;;1909699;74;21210;-74
2022/01/17 00:53:18;;;;;;;29.48;20.32;;;23.20;80.00;;;;;;1907450;74;21187;-74
2022/01/17 00:55:48;;;;;;;29.18;19.42;;;23.30;79.80;;;;;;1913316;74;21606;-74
2022/01/17 00:58:21;;;;;;;33.42;19.52;;;23.30;80.00;;;;;;1903656;74;21110;-73
2022/01/17 01:00:52;;;;;;;34.88;19.45;;;23.20;80.00;;;;;;1906632;74;21198;-74
2022/01/17 01:03:23;;;;;;;32.13;21.12;;;23.30;80.10;;;;;;1911907;74;21108;-73
2022/01/17 01:05:53;;;;;;;35.85;23.92;;;23.20;80.30;;;;;;1913651;74;21050;-74
2022/01/17 01:08:24;;;;;;;36.40;24.63;;;23.30;80.40;;;;;;1877763;74;21222;-72
2022/01/17 01:10:55;;;;;;;26.45;18.80;;;23.30;80.40;;;;;;1901689;74;21677;-74
2022/01/17 01:13:29;;;;;;;30.37;17.57;;;23.30;80.20;;;;;;1906327;74;21580;-72
2022/01/17 01:28:42;;;;;;;30.20;17.82;;;23.60;79.30;;;;;;1902830;74;21532;-72
2022/01/17 01:31:19;;;;;;;26.35;16.40;;;23.60;79.40;;;;;;1903886;74;21646;-74
2022/01/17 01:33:52;;;;;;;26.52;15.20;;;23.60;79.10;;;;;;1913224;74;21124;-74
2022/01/17 01:36:24;;;;;;;21.82;15.10;;;23.60;79.20;;;;;;1913257;74;21643;-74
2022/01/17 01:38:50;;;;;;;28.07;14.90;;;23.60;79.20;;;;;;1916162;74;21124;-74
2022/01/17 01:41:22;;;;;;;24.12;15.75;;;23.60;79.20;;;;;;1888006;74;21074;-75
2022/01/17 01:43:53;;;;;;;25.37;16.10;;;23.70;79.10;;;;;;1925951;74;22307;-72
2022/01/17 01:46:24;;;;;;;26.15;15.15;;;23.70;78.60;;;;;;1909320;74;21065;-73
2022/01/17 01:48:54;;;;;;;20.40;13.60;;;23.70;78.80;;;;;;1869098;75;21081;-73
2022/01/17 01:51:25;;;;;;;23.25;15.90;;;23.80;78.40;;;;;;1907564;74;21580;-72
2022/01/17 01:53:56;;;;;;;22.90;16.07;;;23.80;78.60;;;;;;1902476;74;21127;-73
2022/01/17 01:56:26;;;;;;;26.97;16.05;;;23.90;78.80;;;;;;1902699;74;21174;-73
2022/01/17 01:58:57;;;;;;;22.93;14.83;;;24.00;79.10;;;;;;1912600;74;21602;-74
2022/01/17 02:01:28;;;;;;;25.50;14.35;;;24.00;78.70;;;;;;1907167;74;21206;-72
2022/01/17 02:03:59;;;;;;;22.82;15.58;;;24.00;78.70;;;;;;1908548;74;21117;-73
2022/01/17 02:06:32;;;;;;;20.82;14.28;;;24.10;78.60;;;;;;1912541;74;21211;-73
2022/01/17 02:09:05;;;;;;;28.85;14.30;;;24.10;78.50;;;;;;1913417;74;21624;-73
2022/01/17 02:11:36;;;;;;;23.45;14.30;;;24.20;78.60;;;;;;1906739;74;21116;-73
2022/01/17 02:14:07;;;;;;;25.62;14.50;;;24.30;78.10;;;;;;1864227;75;21246;-72
2022/01/17 02:16:40;;;;;;;22.58;15.10;;;24.30;78.20;;;;;;1909871;74;21669;-73
2022/01/17 02:19:11;;;;;;;22.65;14.13;;;24.40;78.00;;;;;;1907141;74;21144;-73
2022/01/17 02:21:46;;;;;;;21.12;12.40;;;24.40;77.70;;;;;;1906120;74;21179;-73
2022/01/17 02:24:16;;;;;;;21.57;13.30;;;24.50;77.30;;;;;;1910123;74;21651;-73
2022/01/17 02:26:48;;;;;;;22.05;12.90;;;24.50;77.30;;;;;;1908643;74;21123;-73
2022/01/17 02:29:19;;;;;;;23.83;13.53;;;24.60;77.30;;;;;;1910671;74;21180;-73
2022/01/17 02:31:50;;;;;;;20.77;13.13;;;24.60;77.20;;;;;;1901098;74;21096;-72
2022/01/17 02:34:20;;;;;;;20.80;12.47;;;24.60;76.00;;;;;;1904514;74;21113;-73
2022/01/17 02:37:10;;;;;;;18.10;11.30;;;24.70;76.50;;;;;;1891759;73;21076;-73
2022/01/17 02:39:42;;;;;;;18.67;11.88;;;24.70;76.10;;;;;;1877828;76;21170;-73
2022/01/17 02:42:16;;;;;;;18.82;11.75;;;24.80;75.90;;;;;;1879600;74;21218;-73
2022/01/17 02:44:46;;;;;;;18.40;11.78;;;24.80;75.70;;;;;;1873754;75;21138;-73
2022/01/17 02:47:17;;;;;;;20.68;11.65;;;24.80;75.70;;;;;;1883164;74;21212;-73
2022/01/17 02:49:48;;;;;;;22.15;12.07;;;24.90;75.70;;;;;;1876769;75;21228;-73
2022/01/17 02:52:21;;;;;;;17.82;11.45;;;24.90;75.80;;;;;;1876618;75;21156;-72
2022/01/17 02:54:52;;;;;;;19.70;12.40;;;25.00;75.50;;;;;;1879673;75;21184;-73
2022/01/17 02:57:25;;;;;;;22.32;12.70;;;25.00;75.60;;;;;;1883258;74;21204;-72
2022/01/17 02:59:55;;;;;;;21.02;12.53;;;25.00;75.50;;;;;;1874279;75;21158;-75
2022/01/17 03:02:26;;;;;;;21.00;13.10;;;25.00;75.30;;;;;;1881237;75;21134;-72
2022/01/17 03:04:58;;;;;;;17.20;11.95;;;25.10;75.30;;;;;;1877688;74;21594;-72
2022/01/17 03:07:29;;;;;;;22.80;12.07;;;25.20;75.00;;;;;;1871675;75;21137;-73
2022/01/17 03:10:04;;;;;;;19.05;11.95;;;25.20;74.80;;;;;;1877451;74;21134;-73
2022/01/17 03:12:32;;;;;;;19.95;11.80;;;25.30;74.80;;;;;;1898981;74;21138;-72
2022/01/17 03:15:04;;;;;;;17.57;11.70;;;25.30;74.70;;;;;;1891969;75;21263;-73
2022/01/17 03:17:35;;;;;;;18.55;11.70;;;25.40;74.50;;;;;;1881968;75;21095;-73
2022/01/17 03:20:06;;;;;;;17.82;11.97;;;25.50;74.40;;;;;;1893230;75;21192;-74
2022/01/17 03:22:39;;;;;;;16.93;11.50;;;25.50;74.30;;;;;;1836774;77;21211;-73
2022/01/17 03:25:10;;;;;;;19.15;10.95;;;25.60;74.20;;;;;;1877540;75;21148;-73
2022/01/17 03:27:42;;;;;;;16.55;9.83;;;25.60;73.90;;;;;;1879413;76;21924;-74
2022/01/17 03:30:13;;;;;;;17.23;10.13;;;25.70;73.70;;;;;;1855218;76;21177;-72
2022/01/17 03:32:46;;;;;;;16.30;9.70;;;25.80;73.30;;;;;;1861307;76;21192;-72
2022/01/17 03:35:17;;;;;;;13.43;8.68;;;25.90;72.90;;;;;;1863990;76;21185;-73
2022/01/17 03:37:48;;;;;;;16.07;9.13;;;25.90;72.70;;;;;;1858039;76;21069;-73
2022/01/17 03:40:20;;;;;;;14.55;8.58;;;26.00;72.50;;;;;;1849384;76;21151;-74
2022/01/17 03:42:50;;;;;;;16.10;8.33;;;26.10;72.10;;;;;;1838562;77;21216;-74
2022/01/17 03:45:21;;;;;;;13.85;8.60;;;26.10;71.90;;;;;;1877094;74;21157;-74
2022/01/17 03:47:52;;;;;;;14.90;8.63;;;26.30;71.90;;;;;;1882185;75;21198;-73
2022/01/17 03:50:25;;;;;;;12.75;7.75;;;26.30;71.30;;;;;;1875399;75;21145;-73
2022/01/17 03:52:55;;;;;;;14.40;8.15;;;26.40;71.00;;;;;;1870118;75;21190;-73
2022/01/17 03:55:28;;;;;;;14.35;8.08;;;26.50;70.40;;;;;;1830337;76;21111;-74
2022/01/17 03:57:58;;;;;;;14.15;8.45;;;26.60;70.00;;;;;;1856047;76;21151;-72
2022/01/17 04:00:32;;;;;;;14.20;8.03;;;26.70;69.70;;;;;;1876187;74;21092;-74
2022/01/17 04:03:03;;;;;;;11.63;7.83;;;26.70;69.20;;;;;;1853102;76;21602;-73
2022/01/17 04:05:34;;;;;;;12.75;8.25;;;26.80;68.90;;;;;;1854769;76;21166;-73
2022/01/17 04:08:05;;;;;;;10.95;7.80;;;26.90;68.20;;;;;;1879341;74;21062;-73
2022/01/17 04:10:36;;;;;;;13.93;8.10;;;27.00;68.00;;;;;;1880853;75;21574;-74
2022/01/17 04:13:08;;;;;;;12.53;8.73;;;27.10;67.60;;;;;;1898427;74;21127;-73
2022/01/17 04:15:40;;;;;;;13.55;9.13;;;27.20;67.30;;;;;;1852499;76;21601;-73
2022/01/17 04:18:12;;;;;;;14.10;8.28;;;27.30;67.20;;;;;;1840732;76;21594;-75
2022/01/17 04:20:44;;;;;;;13.90;7.97;;;27.40;66.70;;;;;;1853620;76;21326;-73
2022/01/17 04:23:15;;;;;;;13.10;8.15;;;27.50;66.40;;;;;;1854990;76;21509;-73
2022/01/17 04:25:48;;;;;;;12.30;8.73;;;27.70;66.20;;;;;;1827620;76;21677;-74
2022/01/17 04:28:19;;;;;;;15.05;9.85;;;27.80;65.90;;;;;;1850426;76;21155;-73
2022/01/17 04:30:51;;;;;;;19.27;8.45;;;27.90;65.80;;;;;;1851336;76;21139;-74
2022/01/17 04:33:22;;;;;;;14.68;8.43;;;27.90;65.60;;;;;;1844584;76;21173;-72
2022/01/17 04:35:52;;;;;;;12.30;8.75;;;28.10;64.40;;;;;;1853614;76;21151;-73
2022/01/17 04:38:23;;;;;;;13.18;8.40;;;28.30;64.10;;;;;;1837875;77;21287;-72
2022/01/17 04:41:02;;;;;;;14.47;8.90;;;28.40;63.30;;;;;;1874023;75;21134;-74
2022/01/17 04:43:55;;;;;;;12.58;8.40;;;28.50;62.40;;;;;;1875879;74;21667;-74
2022/01/17 04:45:59;;;;;;;12.80;8.68;;;28.50;62.90;;;;;;1874937;75;21134;-73
2022/01/17 04:48:30;;;;;;;12.68;8.18;;;28.60;63.10;;;;;;1886614;75;21264;-73
2022/01/17 04:51:00;;;;;;;14.40;7.90;;;28.70;62.70;;;;;;1873962;75;21219;-72
2022/01/17 04:53:32;;;;;;;13.28;7.97;;;28.70;61.90;;;;;;1880490;75;21164;-73
2022/01/17 04:56:04;;;;;;;14.45;7.78;;;28.90;62.00;;;;;;1879125;76;21133;-72
2022/01/17 04:58:35;;;;;;;15.65;8.45;;;29.00;60.50;;;;;;1882737;75;21285;-72
2022/01/17 05:01:05;;;;;;;11.80;7.28;;;29.10;60.60;;;;;;1887722;74;21137;-72
2022/01/17 05:03:37;;;;;;;13.43;8.05;;;29.10;60.30;;;;;;1881153;74;21261;-72
2022/01/17 05:06:08;;;;;;;13.88;8.03;;;29.10;60.30;;;;;;1878129;75;21232;-72
2022/01/17 05:08:39;;;;;;;12.30;8.05;;;29.20;59.70;;;;;;1879684;75;21202;-71
2022/01/17 05:11:09;;;;;;;11.45;7.65;;;29.20;59.50;;;;;;1832474;76;21134;-72
2022/01/17 05:13:46;;;;;;;12.60;7.92;;;29.30;59.70;;;;;;1882177;75;21574;-72
2022/01/17 05:16:14;;;;;;;14.60;8.63;;;29.30;59.00;;;;;;1845699;76;21115;-72
2022/01/17 05:21:16;;;;;;;12.25;8.53;;;29.50;58.90;;;;;;1942232;73;21126;-73
2022/01/17 05:23:47;;;;;;;12.98;7.75;;;29.60;59.10;;;;;;1919238;73;21499;-72
2022/01/17 05:26:19;;;;;;;13.55;8.43;;;29.70;58.90;;;;;;1852993;76;21130;-72
2022/01/17 05:28:51;;;;;;;15.20;8.68;;;29.80;58.60;;;;;;1940698;73;21688;-73
2022/01/17 05:31:22;;;;;;;24.25;9.75;;;29.80;58.30;;;;;;1935859;73;21183;-73
2022/01/17 05:33:53;;;;;;;13.95;8.28;;;29.90;58.50;;;;;;1887101;74;21084;-73
2022/01/17 05:36:23;;;;;;;12.85;8.35;;;29.80;57.70;;;;;;1851857;76;21452;-72
2022/01/17 05:39:01;;;;;;;13.58;9.03;;;29.80;57.70;;;;;;1875946;75;21186;-73
2022/01/17 05:41:32;;;;;;;14.18;8.40;;;29.80;57.20;;;;;;1882707;75;21442;-73
2022/01/17 05:44:04;;;;;;;16.42;8.33;;;29.80;57.70;;;;;;1879608;75;21202;-73
2022/01/17 05:46:36;;;;;;;12.43;8.13;;;29.80;57.00;;;;;;1871593;75;21593;-73
2022/01/17 05:49:07;;;;;;;13.55;8.28;;;29.90;57.30;;;;;;1881725;75;21123;-72
2022/01/17 05:51:38;;;;;;;14.25;7.80;;;30.10;56.60;;;;;;1836785;76;21683;-73
2022/01/17 05:54:09;;;;;;;17.35;8.98;;;30.10;56.30;;;;;;1876993;75;21141;-72
2022/01/17 05:56:40;;;;;;;10.85;7.85;;;30.10;57.80;;;;;;1883235;75;21205;-72
2022/01/17 05:59:11;;;;;;;12.82;8.45;;;30.10;57.20;;;;;;1827085;76;21731;-72
2022/01/17 06:01:44;;;;;;;14.73;8.70;;;30.10;57.70;;;;;;1876755;74;21562;-72
2022/01/17 06:04:15;;;;;;;11.90;7.87;;;30.10;56.90;;;;;;1891529;74;21123;-72
2022/01/17 06:06:46;;;;;;;11.83;8.15;;;30.20;56.70;;;;;;1880331;75;21528;-72
2022/01/17 06:09:16;;;;;;;18.80;8.73;;;30.20;56.50;;;;;;1864800;76;21683;-72
2022/01/17 06:11:47;;;;;;;13.18;8.38;;;30.30;56.10;;;;;;1883705;74;21150;-72
2022/01/17 06:14:18;;;;;;;13.95;8.45;;;30.40;55.80;;;;;;1853928;76;21151;-72
2022/01/17 06:16:51;;;;;;;11.85;7.75;;;30.30;55.80;;;;;;1851230;76;21189;-72
2022/01/17 06:19:22;;;;;;;11.70;8.05;;;30.20;55.80;;;;;;1884156;74;21115;-72
2022/01/17 06:21:53;;;;;;;13.88;8.30;;;30.20;55.80;;;;;;1849528;76;21146;-72
2022/01/17 06:24:24;;;;;;;14.80;8.50;;;30.20;55.80;;;;;;1876336;75;21143;-72
2022/01/17 06:26:55;;;;;;;16.40;8.83;;;30.20;56.40;;;;;;1876694;75;21143;-72
2022/01/17 06:29:27;;;;;;;11.95;8.38;;;30.20;56.40;;;;;;1864517;75;21882;-72
2022/01/17 06:31:58;;;;;;;13.45;8.40;;;30.30;55.80;;;;;;1866406;75;21131;-73
2022/01/17 06:34:31;;;;;;;14.85;8.90;;;30.40;55.80;;;;;;1927659;73;21088;-73
2022/01/17 06:37:06;;;;;;;13.00;7.75;;;30.30;55.70;;;;;;1893205;75;21183;-73
2022/01/17 06:39:37;;;;;;;15.20;8.58;;;30.20;55.80;;;;;;1847089;76;21491;-73
2022/01/17 06:42:08;;;;;;;13.32;8.35;;;30.10;55.40;;;;;;1887829;74;21138;-72
2022/01/17 06:44:42;;;;;;;11.57;8.58;;;29.90;55.10;;;;;;1890231;75;21651;-73
2022/01/17 06:47:12;;;;;;;14.07;8.30;;;29.80;55.40;;;;;;1948540;72;21134;-72
2022/01/17 06:49:43;;;;;;;16.30;8.70;;;29.50;55.10;;;;;;1951288;73;21082;-72
2022/01/17 06:52:14;;;;;;;12.50;8.38;;;29.50;55.20;;;;;;1946241;73;21632;-72
2022/01/17 06:54:45;;;;;;;11.30;7.92;;;29.50;55.20;;;;;;1864794;76;21075;-72
2022/01/17 06:57:17;;;;;;;14.25;8.30;;;29.60;55.00;;;;;;1883924;75;21115;-71
2022/01/17 06:59:48;;;;;;;12.93;8.33;;;29.80;53.60;;;;;;1890872;74;21118;-72
2022/01/17 07:02:19;;;;;;;14.65;8.50;;;29.90;53.10;;;;;;1888811;75;21118;-72
2022/01/17 07:04:51;;;;;;;11.65;8.40;;;30.10;53.40;;;;;;1892154;74;21124;-72
2022/01/17 07:07:22;;;;;;;12.20;8.75;;;30.30;53.60;;;;;;1898827;74;21169;-73
2022/01/17 07:09:53;;;;;;;13.50;8.70;;;30.40;52.50;;;;;;1933154;73;21242;-72
2022/01/17 07:12:26;;;;;;;11.45;8.38;;;30.50;52.70;;;;;;1937596;73;21565;-73
2022/01/17 07:14:58;;;;;;;14.50;8.35;;;30.60;52.30;;;;;;1896745;74;21145;-73
2022/01/17 07:17:29;;;;;;;14.73;9.25;;;30.50;52.70;;;;;;1951754;73;21111;-72
2022/01/17 07:19:59;;;;;;;17.07;9.50;;;30.40;52.80;;;;;;1936997;73;21218;-72
2022/01/17 07:22:32;;;;;;;11.33;8.75;;;30.30;52.80;;;;;;1886018;75;21178;-72
2022/01/17 07:25:04;;;;;;;15.58;9.30;;;30.30;53.20;;;;;;1879420;75;21668;-72
2022/01/17 07:27:40;;;;;;;9.63;7.97;;;30.10;53.70;;;;;;1882557;74;21783;-72
2022/01/17 07:30:11;;;;;;;13.20;8.55;;;30.10;53.20;;;;;;1884980;75;21240;-73
2022/01/17 07:32:42;;;;;;;12.45;9.45;;;30.00;54.00;;;;;;1891592;74;21162;-72
2022/01/17 07:35:13;;;;;;;11.83;8.73;;;29.90;53.80;;;;;;1886468;75;21692;-73
2022/01/17 07:37:44;;;;;;;12.78;8.83;;;29.90;53.00;;;;;;1886300;75;21220;-73
2022/01/17 07:40:19;;;;;;;15.72;9.15;;;30.00;54.30;;;;;;1878254;75;21235;-73
2022/01/17 07:42:50;;;;;;;14.58;9.05;;;30.00;53.50;;;;;;1891730;74;21122;-73
2022/01/17 07:45:21;;;;;;;13.53;9.65;;;30.10;52.90;;;;;;1878966;74;21080;-73
2022/01/17 07:50:29;;;;;;;11.03;9.15;;;30.00;52.30;;;;;;1962833;72;21064;-73
2022/01/17 07:52:57;;;;;;;12.00;9.30;;;30.00;53.00;;;;;;1944801;73;21665;-72
2022/01/17 07:55:27;;;;;;;14.98;9.08;;;30.00;52.90;;;;;;1941310;73;21590;-73
2022/01/17 07:57:58;;;;;;;13.18;8.83;;;30.00;52.20;;;;;;1856975;76;21186;-73
2022/01/17 08:00:29;;;;;;;13.28;10.03;;;29.90;51.70;;;;;;1854364;76;21182;-73
2022/01/17 08:03:02;;;;;;;13.83;9.88;;;30.00;52.00;;;;;;1855826;76;21123;-72
2022/01/17 08:05:32;;;;;;;14.15;10.08;;;30.00;51.40;;;;;;1884921;74;21112;-72
2022/01/17 08:08:03;;;;;;;10.25;8.68;;;30.00;51.90;;;;;;1891837;74;21154;-72
2022/01/17 08:10:34;;;;;;;13.53;8.83;;;30.00;52.00;;;;;;1888511;74;21763;-73
2022/01/17 08:13:04;;;;;;;15.35;9.18;;;30.00;51.80;;;;;;1892258;74;21126;-72
2022/01/17 08:15:39;;;;;;;13.00;8.58;;;29.90;51.90;;;;;;1848931;76;21677;-74
2022/01/17 08:18:10;;;;;;;14.38;8.60;;;29.90;51.10;;;;;;1886799;74;21232;-72
2022/01/17 08:20:42;;;;;;;12.13;9.33;;;29.90;50.80;;;;;;1882598;74;21233;-74
2022/01/17 08:23:13;;;;;;;12.70;8.25;;;30.00;51.10;;;;;;1881648;76;21107;-72
2022/01/17 08:25:43;;;;;;;11.28;8.90;;;30.00;51.20;;;;;;1878248;75;21146;-72
2022/01/17 08:28:14;;;;;;;16.77;9.50;;;30.10;51.90;;;;;;1889706;74;21673;-73
2022/01/17 08:30:45;;;;;;;12.90;8.43;;;30.10;51.40;;;;;;1890612;74;21097;-73
2022/01/17 08:33:17;;;;;;;12.45;8.58;;;30.10;51.30;;;;;;1847045;76;21190;-74
2022/01/17 08:35:49;;;;;;;14.00;9.08;;;30.10;51.50;;;;;;1933389;73;21124;-72
2022/01/17 08:38:23;;;;;;;11.68;8.55;;;30.10;51.20;;;;;;1875196;74;21067;-73
2022/01/17 08:40:54;;;;;;;10.35;8.55;;;30.10;52.00;;;;;;1885500;75;21760;-73
2022/01/17 08:43:25;;;;;;;15.08;10.65;;;30.00;51.40;;;;;;1882621;75;21215;-71
2022/01/17 08:45:57;;;;;;;16.23;9.28;;;30.10;51.40;;;;;;1896144;75;21985;-72
2022/01/17 08:48:28;;;;;;;13.18;8.78;;;30.10;51.00;;;;;;1881452;75;21115;-73
2022/01/17 08:50:59;;;;;;;20.15;10.25;;;30.10;51.30;;;;;;1889084;75;21202;-73
2022/01/17 08:53:29;;;;;;;12.25;9.08;;;30.10;51.80;;;;;;1944522;73;21255;-73
2022/01/17 08:56:00;;;;;;;13.50;8.98;;;30.10;52.00;;;;;;1938250;73;21143;-73
2022/01/17 08:58:31;;;;;;;12.05;8.38;;;30.10;52.10;;;;;;1946630;73;21218;-73
2022/01/17 09:01:01;;;;;;;14.20;9.93;;;30.00;52.10;;;;;;1873397;75;21604;-73
2022/01/17 09:03:33;;;;;;;10.70;8.73;;;30.00;52.40;;;;;;1894469;74;21130;-74
2022/01/17 09:06:04;;;;;;;14.70;9.50;;;30.00;52.00;;;;;;1899286;74;21602;-73
2022/01/17 09:08:35;;;;;;;14.28;8.95;;;30.00;52.40;;;;;;1895928;74;22268;-73
2022/01/17 09:11:05;;;;;;;13.18;9.03;;;30.00;52.50;;;;;;1898650;74;21592;-73
2022/01/17 09:13:36;;;;;;;15.00;8.70;;;30.00;52.50;;;;;;1899840;75;21221;-73
2022/01/17 09:16:08;;;;;;;13.05;10.18;;;30.00;52.20;;;;;;1907306;74;21707;-73
2022/01/17 09:18:39;;;;;;;18.32;10.82;;;30.00;52.50;;;;;;1879319;75;21766;-74
2022/01/17 09:21:10;;;;;;;12.82;9.23;;;30.00;52.70;;;;;;1898393;75;21620;-73
2022/01/17 09:23:41;;;;;;;19.55;9.35;;;30.10;52.80;;;;;;1945752;73;21163;-72
2022/01/17 09:26:13;;;;;;;12.28;8.60;;;30.10;52.10;;;;;;1942214;73;21112;-73
2022/01/17 09:28:45;;;;;;;11.08;8.23;;;30.20;52.30;;;;;;1886575;75;21219;-73
2022/01/17 09:31:16;;;;;;;12.93;8.45;;;30.20;52.10;;;;;;1883880;74;21118;-73
2022/01/17 09:33:53;;;;;;;13.83;10.13;;;30.10;52.60;;;;;;1903273;74;21537;-73
2022/01/17 09:36:29;;;;;;;14.95;9.80;;;30.10;52.20;;;;;;1894904;74;21086;-72
2022/01/17 09:39:06;;;;;;;16.02;9.45;;;30.10;52.30;;;;;;1874369;75;21162;-73
2022/01/17 09:41:34;;;;;;;15.55;9.20;;;30.20;52.30;;;;;;1887608;75;21083;-73
2022/01/17 09:44:05;;;;;;;14.38;9.03;;;30.10;52.30;;;;;;1892702;74;21884;-73
2022/01/17 09:46:42;;;;;;;15.13;8.38;;;30.10;52.20;;;;;;1898340;75;21800;-72
2022/01/17 09:49:51;;;;;;;12.78;8.60;;;30.10;52.30;;;;;;1899702;74;21175;-73
2022/01/17 09:54:17;;;;;;;15.70;9.50;;;30.00;52.40;;;;;;1867407;75;22279;-72
2022/01/17 09:56:50;;;;;;;12.90;9.55;;;30.00;52.00;;;;;;1879887;75;21192;-73
2022/01/17 09:59:21;;;;;;;14.87;8.85;;;29.90;52.00;;;;;;1889664;74;21172;-73
2022/01/17 10:01:52;;;;;;;12.45;7.95;;;29.90;52.30;;;;;;1947345;72;21104;-73
2022/01/17 10:04:22;;;;;;;13.30;9.05;;;29.90;52.20;;;;;;1868717;75;21080;-73
2022/01/17 10:06:55;;;;;;;15.63;9.28;;;29.90;52.30;;;;;;1867792;75;21083;-72
2022/01/17 10:09:27;;;;;;;16.70;10.40;;;29.80;52.60;;;;;;1868564;75;21079;-74
2022/01/17 10:12:02;;;;;;;12.73;9.08;;;29.80;52.80;;;;;;1869098;75;21279;-73
2022/01/17 10:14:37;;;;;;;16.50;9.25;;;29.80;52.80;;;;;;1878980;75;21659;-74
2022/01/17 10:17:08;;;;;;;15.08;8.90;;;29.70;53.80;;;;;;1898444;74;21140;-74
2022/01/17 10:19:40;;;;;;;12.28;9.35;;;29.70;53.00;;;;;;1898061;74;21118;-74
2022/01/17 10:22:17;;;;;;;12.45;9.48;;;29.60;53.10;;;;;;1870872;75;21728;-73
2022/01/17 10:27:54;;;;;;;14.80;9.15;;;29.50;53.20;;;;;;1857090;75;21149;-72
2022/01/17 10:35:02;;;;;;;16.67;10.40;;;29.40;53.70;;;;;;1879762;75;21090;-73
2022/01/17 10:37:34;;;;;;;17.48;9.85;;;29.30;53.70;;;;;;1861737;76;21157;-72
2022/01/17 10:40:06;;;;;;;19.65;10.28;;;29.30;54.00;;;;;;1867266;75;21114;-73
2022/01/17 10:42:41;;;;;;;18.60;10.00;;;29.30;54.40;;;;;;1887928;74;21091;-72
2022/01/17 10:45:14;;;;;;;17.52;9.85;;;29.30;54.60;;;;;;1887308;76;21625;-73
2022/01/17 10:47:47;;;;;;;18.30;10.28;;;29.20;55.00;;;;;;1867174;75;21755;-72
2022/01/17 10:50:20;;;;;;;16.95;11.00;;;29.20;55.00;;;;;;1863667;76;21655;-73
2022/01/17 10:52:54;;;;;;;19.87;10.32;;;29.20;56.00;;;;;;1870485;76;21215;-73
2022/01/17 10:55:27;;;;;;;16.70;9.78;;;29.20;55.40;;;;;;1833854;77;21090;-73
2022/01/17 10:58:02;;;;;;;14.65;9.68;;;29.10;55.40;;;;;;1906508;74;21236;-73
2022/01/17 11:00:35;;;;;;;16.75;10.58;;;29.10;55.60;;;;;;1901271;74;21657;-75
2022/01/17 11:03:08;;;;;;;20.02;10.58;;;29.00;55.70;;;;;;1902542;74;21502;-73
2022/01/17 11:05:41;;;;;;;17.37;10.80;;;29.00;55.80;;;;;;1905647;74;21562;-72
2022/01/17 11:08:14;;;;;;;18.42;10.63;;;29.00;56.00;;;;;;1826342;77;21761;-72
2022/01/17 11:10:47;;;;;;;20.02;11.35;;;29.00;56.20;;;;;;1835279;76;21142;-72
2022/01/17 11:13:19;;;;;;;18.60;10.93;;;28.90;56.40;;;;;;1827797;78;21205;-72
2022/01/17 11:15:52;;;;;;;19.98;11.45;;;28.90;56.40;;;;;;1824026;76;21248;-73
2022/01/17 11:18:28;;;;;;;25.45;12.90;;;28.80;56.50;;;;;;1810222;78;21204;-72
2022/01/17 11:21:03;;;;;;;24.67;15.40;;;28.80;56.80;;;;;;1827107;78;21213;-73
2022/01/17 11:23:34;;;;;;;23.50;15.08;;;28.80;57.00;;;;;;1825930;78;21134;-73
2022/01/17 11:26:06;;;;;;;25.10;14.95;;;28.70;57.20;;;;;;1825316;78;21206;-75
2022/01/17 11:28:38;;;;;;;21.30;13.85;;;28.80;57.50;;;;;;1825588;78;21590;-72
2022/01/17 11:31:13;;;;;;;20.40;12.73;;;28.70;57.40;;;;;;1825941;77;21150;-73
2022/01/17 11:33:49;;;;;;;26.12;13.38;;;28.70;57.40;;;;;;1832383;76;21718;-75
2022/01/17 11:36:19;;;;;;;21.20;13.25;;;28.70;57.50;;;;;;1823797;77;21162;-85
2022/01/17 11:38:54;;;;;;;20.57;13.08;;;28.60;57.60;;;;;;1832726;77;21657;-85
2022/01/17 11:41:26;;;;;;;21.97;13.75;;;28.60;57.60;;;;;;1832229;77;21307;-84
2022/01/17 11:44:00;;;;;;;21.50;12.28;;;28.60;57.70;;;;;;1824277;77;21149;-83
2022/01/17 11:46:33;;;;;;;18.45;12.60;;;28.60;57.80;;;;;;1824715;76;21225;-84
2022/01/17 11:49:07;;;;;;;22.87;13.43;;;28.50;57.90;;;;;;1873696;75;21202;-83
2022/01/17 11:51:44;;;;;;;22.22;12.73;;;28.50;58.00;;;;;;1867121;75;21139;-86
2022/01/17 11:54:15;;;;;;;21.50;12.90;;;28.50;58.10;;;;;;1939531;73;21108;-84
2022/01/17 11:56:48;;;;;;;26.07;12.85;;;28.50;58.20;;;;;;1935659;72;21587;-84
2022/01/17 11:59:21;;;;;;;19.80;13.03;;;28.40;58.20;;;;;;1938864;72;21139;-83
2022/01/17 12:01:54;;;;;;;21.40;14.68;;;28.40;58.40;;;;;;1936268;73;21561;-85
2022/01/17 12:04:26;;;;;;;23.07;15.53;;;28.40;58.60;;;;;;1926217;73;21192;-85
2022/01/17 12:07:00;;;;;;;22.75;14.50;;;28.40;58.60;;;;;;1847321;76;21151;-85
2022/01/17 12:09:39;;;;;;;28.02;17.57;;;28.30;58.80;;;;;;1839913;76;21595;-85
2022/01/17 12:12:11;;;;;;;28.12;17.62;;;28.30;58.90;;;;;;1882257;74;21151;-85
2022/01/17 12:14:54;;;;;;;26.68;18.05;;;28.30;58.90;;;;;;1794986;78;21684;-84
2022/01/17 12:17:20;;;;;;;31.97;18.40;;;28.30;58.90;;;;;;1794561;78;21702;-85
2022/01/17 12:20:14;;;;;;;22.60;16.52;;;28.20;58.90;;;;;;1857005;76;21163;-84
2022/01/17 12:23:20;;;;;;;;;;;;;;;;;;;;;
2022/01/17 12:26:48;;;;;;;22.55;15.28;;;28.20;59.10;;;;;;1837550;76;21099;-84
2022/01/17 12:32:18;;;;;;;20.85;14.28;;;28.20;59.50;;;;;;1596448;89;21857;-84
2022/01/17 12:35:35;;;;;;;25.30;15.20;;;28.10;59.40;;;;;;2035678;69;22130;-84
2022/01/17 12:38:09;;;;;;;19.02;14.33;;;28.10;59.60;;;;;;1970866;70;21527;-85
2022/01/17 12:40:43;;;;;;;20.08;14.10;;;28.00;59.90;;;;;;1961573;71;21128;-84
2022/01/17 12:44:49;;;;;;;20.43;14.40;;;28.00;60.00;;;;;;1948319;71;22286;-84
2022/01/17 12:49:07;;;;;;;26.60;15.70;;;27.90;60.20;;;;;;1836797;74;21197;-85
2022/01/17 12:51:43;;;;;;;23.85;15.93;;;27.90;61.50;;;;;;1851275;75;21639;-84
2022/01/17 12:54:17;;;;;;;23.83;16.93;;;27.80;60.60;;;;;;1859978;75;21224;-84
2022/01/17 12:56:49;;;;;;;24.05;16.73;;;27.80;60.90;;;;;;1817898;76;21259;-84
2022/01/17 12:59:21;;;;;;;25.20;16.95;;;27.80;61.00;;;;;;1816738;76;21232;-83
2022/01/17 13:01:54;;;;;;;26.55;17.37;;;27.80;61.20;;;;;;1800389;76;21230;-83
2022/01/17 13:04:33;;;;;;;23.85;16.23;;;27.70;61.50;;;;;;1870509;75;21117;-83
2022/01/17 13:07:07;;;;;;;29.50;16.25;;;27.70;61.70;;;;;;1828925;76;21333;-83
2022/01/17 13:09:40;;;;;;;27.50;17.20;;;27.70;62.10;;;;;;1852659;75;21168;-84
2022/01/17 13:12:11;;;;;;;26.80;16.00;;;27.70;62.50;;;;;;1867800;75;21161;-84
2022/01/17 13:14:42;;;;;;;28.87;18.87;;;27.70;63.00;;;;;;1834647;76;21160;-83
2022/01/17 13:17:12;;;;;;;36.98;18.77;;;27.60;63.90;;;;;;1831453;76;21101;-82
2022/01/17 13:19:44;;;;;;;36.60;18.77;;;27.60;64.20;;;;;;1822509;76;21180;-84
2022/01/17 13:22:18;;;;;;;27.15;18.80;;;27.60;64.70;;;;;;1788731;77;21630;-84
2022/01/17 13:25:02;;;;;;;30.75;19.57;;;27.60;64.50;;;;;;1820360;77;21241;-84
2022/01/17 13:27:27;;;;;;;36.48;19.62;;;27.60;64.60;;;;;;1857942;74;21630;-84
2022/01/17 13:29:57;;;;;;;34.78;19.17;;;27.50;64.60;;;;;;1921317;72;21197;-84
2022/01/17 13:32:30;;;;;;;36.33;19.70;;;27.50;64.70;;;;;;1916137;73;21106;-84
2022/01/17 13:35:03;;;;;;;28.75;20.23;;;27.50;64.80;;;;;;1910672;72;21162;-83
2022/01/17 13:37:35;;;;;;;36.25;20.68;;;27.50;65.00;;;;;;1939924;72;21094;-84